Boles, Illinois
Current Conditions -  °F | °C
As of 10:15 AM on Monday 22 Dec 2014 (Local Time) from KM30 Reporting Station
Haze Haze  
Wind Chill: 47°   Ceiling: 1100
Heat Index: 49°   Visibility: 4mi
Dew Point: 49°   Wind: 6mph
Humidity: 98%   Direction: 140°SE
Pressure: 29.81"   Gusts: NA
Location:  37.42°N, 88.97°W
Report Text: KM30 221615Z AUTO 14005KT 4SM BR OVC011 10/09 A2981 RMK AO2 T00960093
Loading
Personal Weather Stations






























Interactive Weather Map New forecast layout! Learn more

10-Day Weather Forecast

Advertisements
Track Severe Weather on mobile